createdAt,value
2022-08-07T00:00:29.973Z,64.08
2022-08-07T00:03:02.788Z,64.30
2022-08-07T00:05:36.136Z,64.37
2022-08-07T00:08:09.275Z,64.04
2022-08-07T00:10:47.917Z,64.69
2022-08-07T00:13:25.886Z,65.02
2022-08-07T00:15:59.299Z,65.04
2022-08-07T00:18:32.643Z,65.33
2022-08-07T00:21:07.998Z,65.05
2022-08-07T00:23:59.496Z,64.50
2022-08-07T00:26:58.713Z,64.61
2022-08-07T00:29:31.261Z,65.66
2022-08-07T00:32:03.646Z,65.50
2022-08-07T00:34:38.086Z,66.41
2022-08-07T00:37:10.437Z,66.16
2022-08-07T00:39:45.235Z,66.08
2022-08-07T00:42:29.185Z,66.14
2022-08-07T00:45:01.374Z,66.39
2022-08-07T00:48:05.382Z,66.18
2022-08-07T00:50:50.548Z,66.47
2022-08-07T00:53:23.380Z,66.87
2022-08-07T00:56:02.952Z,66.98
2022-08-07T00:58:35.841Z,66.89
2022-08-07T01:01:10.149Z,67.80
2022-08-07T01:03:57.062Z,67.84
2022-08-07T01:06:31.933Z,67.26
2022-08-07T01:09:04.943Z,67.94
2022-08-07T01:12:23.320Z,68.47
2022-08-07T01:14:30.107Z,68.73
2022-08-07T01:17:04.249Z,68.89
2022-08-07T01:19:39.935Z,68.83
2022-08-07T01:22:29.432Z,68.85
2022-08-07T01:25:02.543Z,69.04
2022-08-07T01:27:56.088Z,69.21
2022-08-07T01:30:30.049Z,69.33
2022-08-07T01:33:02.153Z,69.84
2022-08-07T01:35:52.706Z,70.04
2022-08-07T01:38:29.180Z,69.96
2022-08-07T01:41:04.443Z,70.18
2022-08-07T01:43:39.005Z,70.09
2022-08-07T01:46:12.166Z,70.42
2022-08-07T01:48:47.593Z,70.35
2022-08-07T01:52:00.941Z,70.56
2022-08-07T01:54:37.048Z,71.08
2022-08-07T01:57:24.952Z,71.48
2022-08-07T02:00:12.983Z,71.94
2022-08-07T02:03:12.016Z,73.14
2022-08-07T02:06:08.937Z,73.43
2022-08-07T02:08:57.369Z,73.81
2022-08-07T02:12:03.644Z,74.36
2022-08-07T02:14:35.903Z,74.98
2022-08-07T02:17:11.398Z,74.84
2022-08-07T02:20:04.156Z,75.03
2022-08-07T02:22:41.487Z,75.75
2022-08-07T02:25:19.071Z,75.93
2022-08-07T02:27:53.060Z,76.14
2022-08-07T02:30:26.712Z,75.50
2022-08-07T02:33:09.251Z,75.24
2022-08-07T02:36:28.315Z,75.27
2022-08-07T02:38:40.029Z,75.20
2022-08-07T02:41:24.377Z,75.02
2022-08-07T02:44:10.318Z,74.72
2022-08-07T02:46:46.911Z,74.36
2022-08-07T02:49:28.849Z,74.80
2022-08-07T02:52:30.927Z,74.50
2022-08-07T02:55:27.359Z,74.57
2022-08-07T02:58:07.944Z,74.85
2022-08-07T03:00:46.825Z,74.39
2022-08-07T03:03:22.878Z,74.75
2022-08-07T03:05:57.356Z,75.23
2022-08-07T03:08:30.636Z,74.85
2022-08-07T03:11:03.173Z,75.09
2022-08-07T03:13:38.770Z,75.58
2022-08-07T03:16:11.591Z,75.24
2022-08-07T03:18:44.555Z,75.73
2022-08-07T03:21:19.860Z,76.50
2022-08-07T03:24:18.062Z,77.34
2022-08-07T03:26:58.522Z,78.08
2022-08-07T03:29:38.070Z,79.10
2022-08-07T03:32:13.518Z,79.11
2022-08-07T03:35:01.026Z,79.90
2022-08-07T03:37:46.463Z,80.53
2022-08-07T03:40:31.004Z,81.20
2022-08-07T03:43:09.994Z,80.75
2022-08-07T03:45:47.824Z,81.05
2022-08-07T03:48:21.331Z,81.53
2022-08-07T03:50:57.722Z,81.15
2022-08-07T03:54:33.098Z,81.23
2022-08-07T03:56:33.276Z,81.83
2022-08-07T03:59:12.930Z,81.59
2022-08-07T04:01:46.774Z,81.61
2022-08-07T04:04:19.435Z,81.96
2022-08-07T04:06:52.879Z,82.54
2022-08-07T04:09:44.843Z,82.40
2022-08-07T04:12:25.275Z,82.51
2022-08-07T04:15:00.483Z,82.31
2022-08-07T04:18:57.824Z,82.09
2022-08-07T04:20:25.395Z,82.78
2022-08-07T04:23:01.505Z,82.89
2022-08-07T04:25:39.403Z,82.56
2022-08-07T04:28:13.434Z,82.57
2022-08-07T04:30:57.237Z,82.52
2022-08-07T04:33:31.289Z,81.96
2022-08-07T04:36:11.732Z,81.27
2022-08-07T04:38:44.600Z,80.90
2022-08-07T04:41:18.187Z,80.93
2022-08-07T04:44:12.419Z,81.09
2022-08-07T04:47:03.845Z,80.50
2022-08-07T04:49:58.079Z,80.64
2022-08-07T04:52:58.781Z,80.80
2022-08-07T04:58:15.667Z,79.77
2022-08-07T04:59:17.818Z,78.13
2022-08-07T05:01:46.790Z,77.77
2022-08-07T05:04:37.725Z,77.35
2022-08-07T05:07:30.663Z,75.48
2022-08-07T05:10:18.994Z,74.59
2022-08-07T05:14:55.033Z,74.23
2022-08-07T05:16:31.713Z,73.77
2022-08-07T05:19:10.794Z,74.15
2022-08-07T05:22:00.134Z,74.16
2022-08-07T05:24:40.356Z,72.98
2022-08-07T05:28:03.387Z,73.55
2022-08-07T05:30:08.351Z,73.82
2022-08-07T05:32:45.696Z,73.00
2022-08-07T05:35:33.122Z,73.27
2022-08-07T05:38:08.935Z,73.41
2022-08-07T05:40:50.381Z,72.02
2022-08-07T05:43:49.771Z,71.53
2022-08-07T05:46:19.996Z,69.80
2022-08-07T05:48:59.698Z,69.34
2022-08-07T05:51:33.319Z,70.14
2022-08-07T05:54:30.809Z,69.53
2022-08-07T05:57:04.404Z,69.97
2022-08-07T05:59:55.809Z,69.64
2022-08-07T06:02:33.506Z,69.48
2022-08-07T06:05:15.426Z,69.57
2022-08-07T06:08:14.294Z,69.31
2022-08-07T06:10:42.544Z,68.96
2022-08-07T06:13:15.685Z,68.36
2022-08-07T06:15:50.110Z,67.98
2022-08-07T06:18:23.421Z,67.40
2022-08-07T06:22:14.804Z,68.21
2022-08-07T06:24:38.365Z,68.00
2022-08-07T06:26:46.157Z,67.79
2022-08-07T06:29:19.218Z,68.60
2022-08-07T06:31:51.394Z,68.79
2022-08-07T06:34:29.664Z,67.90
2022-08-07T06:37:02.816Z,67.92
2022-08-07T06:40:15.683Z,68.13
2022-08-07T06:42:37.515Z,67.81
2022-08-07T06:45:18.325Z,65.92
2022-08-07T06:47:57.321Z,66.55
2022-08-07T06:50:33.622Z,66.00
2022-08-07T06:53:49.209Z,65.44
2022-08-07T06:56:03.964Z,65.21
2022-08-07T06:58:40.602Z,65.18
2022-08-07T07:01:43.702Z,65.34
2022-08-07T07:04:32.650Z,63.93
2022-08-07T07:07:18.899Z,65.27
2022-08-07T07:09:59.776Z,64.87
2022-08-07T07:12:50.305Z,64.62
2022-08-07T07:15:36.189Z,63.13
2022-08-07T07:18:47.097Z,62.60
2022-08-07T07:21:26.957Z,61.96
2022-08-07T07:24:12.815Z,60.87
2022-08-07T07:26:49.620Z,60.61
2022-08-07T07:29:56.679Z,57.99
2022-08-07T07:32:23.723Z,58.31
2022-08-07T07:34:59.532Z,58.51
2022-08-07T07:37:49.469Z,57.13
2022-08-07T07:40:26.055Z,53.80
2022-08-07T07:43:11.579Z,55.38
2022-08-07T07:46:37.246Z,54.43
2022-08-07T07:48:43.182Z,53.56
2022-08-07T07:51:20.410Z,53.19
2022-08-07T07:53:54.548Z,52.02
2022-08-07T07:56:32.700Z,51.13
2022-08-07T07:59:06.641Z,49.92
2022-08-07T08:02:02.299Z,48.33
2022-08-07T08:04:37.319Z,48.63
2022-08-07T08:07:11.540Z,43.26
2022-08-07T08:09:51.653Z,41.91
2022-08-07T08:12:51.218Z,40.02
2022-08-07T08:15:16.888Z,37.67
2022-08-07T08:17:58.796Z,35.17
2022-08-07T08:20:49.732Z,33.09
2022-08-07T08:23:41.405Z,31.09
2022-08-07T08:26:34.687Z,29.25
2022-08-07T08:29:10.890Z,30.48
2022-08-07T08:32:17.386Z,29.64
2022-08-07T08:34:42.399Z,29.21
2022-08-07T08:37:59.035Z,28.70
2022-08-07T08:40:28.530Z,29.10
2022-08-07T08:43:58.806Z,29.37
2022-08-07T08:46:59.513Z,28.71
2022-08-07T08:50:02.733Z,29.55
2022-08-07T08:53:04.424Z,29.01
2022-08-07T08:55:54.585Z,28.71
2022-08-07T08:59:06.298Z,27.91
2022-08-07T09:02:01.382Z,27.51
2022-08-07T09:05:26.370Z,27.14
2022-08-07T09:08:29.113Z,27.36
2022-08-07T09:11:14.038Z,28.27
2022-08-07T09:14:31.602Z,29.04
2022-08-07T09:17:23.361Z,29.41
2022-08-07T09:20:35.931Z,29.16
2022-08-07T09:24:33.733Z,31.49
2022-08-07T09:26:53.812Z,29.73
2022-08-07T09:30:05.419Z,32.36
2022-08-07T09:33:40.659Z,30.99
2022-08-07T09:36:27.118Z,31.99
2022-08-07T09:39:54.353Z,33.07
2022-08-07T09:42:50.488Z,30.30
2022-08-07T09:47:25.163Z,31.21
2022-08-07T09:50:00.406Z,32.63
2022-08-07T09:52:33.858Z,31.69
2022-08-07T09:55:16.899Z,32.73
2022-08-07T09:58:10.309Z,32.61
2022-08-07T10:01:52.349Z,31.85
2022-08-07T10:04:47.691Z,29.76
2022-08-07T10:08:10.572Z,29.99
2022-08-07T10:11:17.232Z,28.74
2022-08-07T10:14:35.369Z,27.47
2022-08-07T10:18:02.564Z,27.87
2022-08-07T10:21:50.290Z,29.25
2022-08-07T10:24:30.512Z,32.21
2022-08-07T10:27:46.690Z,30.31
2022-08-07T10:30:51.448Z,31.58
2022-08-07T10:34:05.532Z,28.11
2022-08-07T10:36:55.584Z,27.77
2022-08-07T10:40:06.242Z,27.14
2022-08-07T10:43:08.152Z,28.76
2022-08-07T10:45:57.353Z,29.08
2022-08-07T10:49:02.935Z,29.41
2022-08-07T10:52:12.753Z,31.73
2022-08-07T10:55:21.231Z,30.55
2022-08-07T10:58:10.947Z,31.74
2022-08-07T11:00:58.494Z,32.00
2022-08-07T11:04:11.246Z,31.97
2022-08-07T11:07:56.544Z,30.93
2022-08-07T11:10:27.538Z,29.37
2022-08-07T11:13:42.404Z,29.80
2022-08-07T11:16:29.709Z,32.07
2022-08-07T11:19:21.692Z,27.95
2022-08-07T11:22:32.250Z,27.04
2022-08-07T11:25:36.218Z,22.92
2022-08-07T11:28:25.713Z,23.34
2022-08-07T11:31:27.556Z,22.59
2022-08-07T11:34:26.779Z,24.98
2022-08-07T11:38:10.071Z,26.80
2022-08-07T11:40:39.720Z,28.30
2022-08-07T11:43:41.677Z,29.00
2022-08-07T11:46:43.164Z,29.46
2022-08-07T11:49:50.828Z,27.42
2022-08-07T11:52:39.437Z,28.09
2022-08-07T11:56:09.165Z,26.90
2022-08-07T12:00:10.896Z,23.72
2022-08-07T12:02:52.270Z,23.33
2022-08-07T12:06:37.980Z,22.42
2022-08-07T12:09:16.223Z,19.62
2022-08-07T12:12:20.220Z,19.74
2022-08-07T12:16:05.064Z,18.97
2022-08-07T12:18:38.550Z,19.07
2022-08-07T12:22:36.313Z,19.53
2022-08-07T12:26:22.362Z,17.21
2022-08-07T12:28:37.018Z,18.53
2022-08-07T12:31:22.241Z,18.00
2022-08-07T12:34:01.817Z,18.17
2022-08-07T12:36:37.978Z,17.66
2022-08-07T12:39:44.324Z,16.94
2022-08-07T12:42:10.265Z,16.16
2022-08-07T12:44:47.949Z,17.41
2022-08-07T12:47:45.646Z,16.62
2022-08-07T12:50:48.843Z,17.20
2022-08-07T12:54:02.808Z,16.01
2022-08-07T12:56:56.538Z,15.77
2022-08-07T12:59:54.415Z,15.80
2022-08-07T13:02:56.716Z,15.73
2022-08-07T13:06:21.431Z,14.92
2022-08-07T13:10:22.028Z,14.06
2022-08-07T13:12:23.735Z,16.60
2022-08-07T13:15:14.141Z,15.72
2022-08-07T13:18:10.374Z,15.91
2022-08-07T13:21:12.238Z,17.40
2022-08-07T13:24:00.554Z,19.35
2022-08-07T13:26:58.736Z,22.79
2022-08-07T13:30:05.687Z,22.83
2022-08-07T13:33:46.075Z,22.47
2022-08-07T13:36:17.402Z,21.87
2022-08-07T13:39:49.727Z,23.49
2022-08-07T13:42:21.476Z,24.79
2022-08-07T13:46:07.389Z,24.06
2022-08-07T13:48:05.753Z,23.72
2022-08-07T13:50:45.037Z,22.41
2022-08-07T13:53:59.347Z,22.49
2022-08-07T13:56:40.779Z,20.89
2022-08-07T13:59:20.712Z,21.62
2022-08-07T14:02:10.232Z,23.28
2022-08-07T14:04:51.617Z,22.57
2022-08-07T14:07:31.979Z,23.72
2022-08-07T14:10:21.753Z,23.66
2022-08-07T14:13:05.079Z,23.02
2022-08-07T14:15:42.954Z,23.78
2022-08-07T14:18:29.869Z,24.90
2022-08-07T14:21:20.976Z,26.25
2022-08-07T14:24:11.955Z,28.43
2022-08-07T14:26:58.131Z,27.62
2022-08-07T14:30:05.288Z,28.03
2022-08-07T14:32:31.350Z,27.78
2022-08-07T14:35:06.090Z,26.46
2022-08-07T14:38:03.287Z,26.46
2022-08-07T14:40:39.859Z,26.21
2022-08-07T14:43:57.782Z,25.45
2022-08-07T14:46:11.763Z,25.34
2022-08-07T14:48:52.104Z,25.30
2022-08-07T14:52:05.125Z,26.32
2022-08-07T14:54:31.200Z,26.56
2022-08-07T14:57:19.763Z,27.74
2022-08-07T15:00:03.611Z,27.98
2022-08-07T15:02:39.263Z,27.78
2022-08-07T15:05:20.541Z,29.26
2022-08-07T15:07:58.516Z,28.60
2022-08-07T15:10:31.587Z,28.90
2022-08-07T15:16:11.238Z,27.75
2022-08-07T15:18:51.711Z,28.01
2022-08-07T15:21:44.174Z,26.72
2022-08-07T15:25:16.313Z,29.90
2022-08-07T15:30:19.927Z,27.67
2022-08-07T15:33:03.756Z,28.92
2022-08-07T15:36:01.599Z,27.64
2022-08-07T15:42:43.260Z,27.19
2022-08-07T15:44:23.613Z,27.49
2022-08-07T15:47:08.702Z,27.96
2022-08-07T15:50:05.253Z,28.04
2022-08-07T15:52:40.127Z,29.23
2022-08-07T15:55:18.654Z,27.55
2022-08-07T15:57:53.863Z,27.89
2022-08-07T16:00:39.780Z,29.06
2022-08-07T16:03:46.688Z,28.59
2022-08-07T16:06:15.910Z,29.24
2022-08-07T16:08:49.561Z,29.10
2022-08-07T16:12:12.288Z,29.41
2022-08-07T16:15:58.059Z,28.56
2022-08-07T16:18:50.726Z,28.45
2022-08-07T16:22:03.627Z,30.11
2022-08-07T16:24:57.934Z,28.95
2022-08-07T16:27:43.720Z,29.20
2022-08-07T16:30:30.148Z,30.22
2022-08-07T16:34:02.601Z,30.83
2022-08-07T16:37:02.841Z,30.06
2022-08-07T16:40:23.384Z,31.15
2022-08-07T16:44:06.251Z,30.05
2022-08-07T16:47:05.570Z,30.83
2022-08-07T16:50:28.932Z,30.11
2022-08-07T16:54:01.382Z,31.39
2022-08-07T16:56:25.247Z,31.65
2022-08-07T16:59:23.429Z,31.25
2022-08-07T17:02:05.005Z,31.84
2022-08-07T17:06:01.986Z,32.54
2022-08-07T17:08:03.819Z,32.41
2022-08-07T17:10:54.323Z,32.70
2022-08-07T17:14:18.628Z,32.72
2022-08-07T17:17:01.385Z,32.91
2022-08-07T17:20:02.543Z,33.30
2022-08-07T17:22:48.547Z,33.29
2022-08-07T17:25:51.336Z,33.55
2022-08-07T17:28:25.345Z,33.37
2022-08-07T17:31:17.399Z,33.13
2022-08-07T17:34:33.693Z,33.64
2022-08-07T17:38:09.397Z,34.87
2022-08-07T17:40:50.472Z,34.58
2022-08-07T17:44:01.825Z,34.03
2022-08-07T17:46:53.226Z,34.71
2022-08-07T17:49:53.924Z,35.88
2022-08-07T17:52:34.057Z,36.43
2022-08-07T17:55:59.998Z,36.48
2022-08-07T17:58:46.533Z,36.08
2022-08-07T18:01:43.268Z,36.81
2022-08-07T18:05:21.448Z,37.22
2022-08-07T18:08:26.578Z,37.46
2022-08-07T18:12:17.545Z,37.55
2022-08-07T18:14:37.631Z,38.01
2022-08-07T18:18:47.500Z,37.94
2022-08-07T18:21:38.297Z,39.29
2022-08-07T18:24:51.230Z,39.53
2022-08-07T18:27:38.239Z,39.48
2022-08-07T18:30:31.185Z,39.45
2022-08-07T18:33:55.367Z,40.42
2022-08-07T18:37:00.312Z,41.07
2022-08-07T18:40:07.040Z,41.30
2022-08-07T18:43:06.428Z,41.61
2022-08-07T18:46:21.740Z,41.69
2022-08-07T18:50:19.720Z,42.16
2022-08-07T18:52:52.969Z,42.55
2022-08-07T18:55:57.415Z,42.52
2022-08-07T18:58:52.306Z,43.31
2022-08-07T19:02:18.305Z,44.12
2022-08-07T19:05:15.853Z,43.29
2022-08-07T19:08:18.137Z,43.22
2022-08-07T19:11:36.033Z,43.90
2022-08-07T19:14:39.078Z,44.56
2022-08-07T19:17:58.909Z,44.40
2022-08-07T19:20:29.032Z,44.78
2022-08-07T19:23:57.196Z,45.11
2022-08-07T19:26:23.559Z,45.17
2022-08-07T19:31:01.704Z,45.79
2022-08-07T19:32:25.915Z,45.18
2022-08-07T19:35:25.861Z,45.87
2022-08-07T19:38:00.783Z,44.57
2022-08-07T19:40:50.745Z,44.72
2022-08-07T19:43:45.660Z,46.00
2022-08-07T19:46:33.814Z,46.35
2022-08-07T19:49:17.437Z,46.46
2022-08-07T19:52:18.206Z,46.99
2022-08-07T19:54:55.686Z,47.71
2022-08-07T19:58:01.165Z,47.43
2022-08-07T20:00:34.725Z,47.83
2022-08-07T20:03:35.513Z,48.39
2022-08-07T20:06:15.518Z,48.36
2022-08-07T20:09:02.967Z,48.38
2022-08-07T20:12:23.201Z,49.48
2022-08-07T20:14:54.200Z,49.91
2022-08-07T20:17:40.240Z,51.07
2022-08-07T20:20:22.642Z,50.58
2022-08-07T20:23:23.348Z,51.45
2022-08-07T20:26:04.568Z,52.28
2022-08-07T20:28:44.376Z,52.75
2022-08-07T20:31:20.998Z,53.22
2022-08-07T20:33:57.734Z,53.37
2022-08-07T20:36:31.680Z,53.50
2022-08-07T20:39:17.781Z,53.91
2022-08-07T20:41:58.683Z,53.49
2022-08-07T20:44:39.937Z,54.86
2022-08-07T20:47:26.101Z,54.03
2022-08-07T20:50:21.220Z,54.35
2022-08-07T20:52:54.134Z,55.17
2022-08-07T20:55:26.882Z,55.85
2022-08-07T20:58:03.655Z,55.82
2022-08-07T21:00:47.659Z,55.92
2022-08-07T21:03:23.365Z,56.03
2022-08-07T21:06:21.444Z,56.89
2022-08-07T21:09:07.529Z,57.42
2022-08-07T21:11:53.087Z,57.28
2022-08-07T21:14:33.243Z,58.19
2022-08-07T21:18:02.675Z,57.56
2022-08-07T21:20:06.970Z,58.25
2022-08-07T21:22:54.078Z,59.11
2022-08-07T21:25:42.402Z,59.14
2022-08-07T21:28:48.941Z,59.02
2022-08-07T21:31:49.826Z,59.08
2022-08-07T21:34:46.003Z,60.18
2022-08-07T21:37:57.191Z,59.91
2022-08-07T21:40:42.029Z,59.94
2022-08-07T21:43:55.802Z,60.66
2022-08-07T21:46:44.208Z,60.57
2022-08-07T21:49:40.734Z,60.36
2022-08-07T21:52:54.353Z,60.93
2022-08-07T21:56:36.530Z,61.42
2022-08-07T22:00:04.162Z,62.23
2022-08-07T22:02:57.628Z,62.77
2022-08-07T22:05:45.766Z,62.78
2022-08-07T22:08:24.760Z,63.07
2022-08-07T22:11:03.843Z,63.48
2022-08-07T22:13:51.261Z,63.97
2022-08-07T22:16:46.179Z,64.17
2022-08-07T22:19:30.448Z,64.71
2022-08-07T22:22:21.037Z,64.98
2022-08-07T22:25:08.285Z,65.32
2022-08-07T22:28:07.971Z,65.30
2022-08-07T22:30:57.553Z,65.51
2022-08-07T22:34:04.749Z,66.09
2022-08-07T22:36:55.229Z,66.56
2022-08-07T22:39:53.023Z,66.12
2022-08-07T22:42:30.487Z,66.06
2022-08-07T22:45:21.773Z,66.16
2022-08-07T22:48:31.630Z,66.28
2022-08-07T22:51:43.682Z,66.22
2022-08-07T22:55:17.181Z,67.08
2022-08-07T22:58:18.883Z,67.25
2022-08-07T23:01:49.877Z,67.59
2022-08-07T23:06:10.292Z,67.29
2022-08-07T23:08:07.153Z,68.30
2022-08-07T23:11:29.393Z,68.82
2022-08-07T23:14:40.930Z,68.75
2022-08-07T23:17:58.542Z,69.04
2022-08-07T23:20:59.706Z,69.62
2022-08-07T23:24:05.608Z,69.52
2022-08-07T23:27:13.513Z,69.39
2022-08-07T23:30:38.524Z,69.61
2022-08-07T23:34:36.712Z,69.71
2022-08-07T23:37:20.340Z,70.22
2022-08-07T23:40:24.142Z,70.50
2022-08-07T23:43:38.201Z,70.61
2022-08-07T23:46:28.775Z,70.79
2022-08-07T23:49:50.709Z,71.12
2022-08-07T23:53:00.908Z,71.25
2022-08-07T23:55:58.423Z,71.93
2022-08-07T23:58:42.841Z,71.65
